Time;durP1;ratioP1;P1;durP2;ratioP2;P2;SDS_P1;SDS_P2;PMS_P1;PMS_P2;Temp;Humidity;BMP_temperature;BMP_pressure;BME280_temperature;BME280_humidity;BME280_pressure;Samples;Min_cycle;Max_cycle;Signal;HPM_P1;HPM_P2
2021/09/22 00:00:06;;;;;;;9.60;8.90;;;10.70;99.90;;;;;;5081600;28;20961;-60
2021/09/22 00:02:33;;;;;;;13.50;9.60;;;10.80;99.90;;;;;;5081315;28;20479;-61
2021/09/22 00:04:59;;;;;;;9.60;8.80;;;10.70;99.90;;;;;;5080856;28;20467;-60
2021/09/22 00:07:26;;;;;;;9.70;8.53;;;10.70;99.90;;;;;;5081601;28;20450;-58
2021/09/22 00:09:54;;;;;;;9.90;9.00;;;10.70;99.90;;;;;;5080320;28;20444;-59
2021/09/22 00:12:20;;;;;;;10.10;9.10;;;10.60;99.90;;;;;;5080921;28;20436;-59
2021/09/22 00:14:47;;;;;;;9.60;8.87;;;10.60;99.90;;;;;;5081200;28;20470;-61
2021/09/22 00:17:14;;;;;;;11.37;10.33;;;10.60;99.90;;;;;;5081978;28;20458;-60
2021/09/22 00:19:41;;;;;;;11.20;9.10;;;10.60;99.90;;;;;;5080806;28;20439;-61
2021/09/22 00:22:08;;;;;;;20.03;10.60;;;10.60;99.90;;;;;;5080988;28;20847;-60
2021/09/22 00:24:35;;;;;;;11.27;9.50;;;10.50;99.90;;;;;;5081687;28;20992;-61
2021/09/22 00:27:04;;;;;;;12.83;8.83;;;10.60;99.90;;;;;;5082191;28;20974;-61
2021/09/22 00:29:31;;;;;;;11.10;9.23;;;10.50;99.90;;;;;;5082651;28;20439;-61
2021/09/22 00:31:58;;;;;;;10.40;9.00;;;10.50;99.90;;;;;;5081628;28;20465;-61
2021/09/22 00:34:25;;;;;;;9.87;9.07;;;10.50;99.90;;;;;;5081030;28;20497;-60
2021/09/22 00:36:52;;;;;;;11.37;10.27;;;10.40;99.90;;;;;;5081474;28;20522;-61
2021/09/22 00:39:18;;;;;;;10.70;9.70;;;10.40;99.90;;;;;;5081407;28;20447;-60
2021/09/22 00:41:45;;;;;;;9.93;9.03;;;10.40;99.90;;;;;;5081750;28;20470;-62
2021/09/22 00:44:13;;;;;;;10.00;9.00;;;10.40;99.90;;;;;;5081407;28;20466;-61
2021/09/22 00:46:40;;;;;;;10.33;8.87;;;10.40;99.90;;;;;;5082351;28;20450;-59
2021/09/22 00:49:06;;;;;;;9.63;8.73;;;10.30;99.90;;;;;;5081870;28;20444;-59
2021/09/22 00:51:33;;;;;;;8.63;7.93;;;10.30;99.90;;;;;;5081144;28;20918;-61
2021/09/22 00:54:00;;;;;;;9.20;8.40;;;10.30;99.90;;;;;;5082033;28;20817;-61
2021/09/22 00:56:27;;;;;;;11.97;9.70;;;10.30;99.90;;;;;;5081810;28;20516;-60
2021/09/22 00:58:53;;;;;;;12.37;8.60;;;10.20;99.90;;;;;;5080917;28;20456;-57
2021/09/22 01:01:21;;;;;;;10.43;8.87;;;10.20;99.90;;;;;;5081003;28;20447;-61
2021/09/22 01:03:48;;;;;;;10.20;8.40;;;10.20;99.90;;;;;;5080325;28;20832;-62
2021/09/22 01:06:16;;;;;;;10.70;9.70;;;10.20;99.90;;;;;;5080733;28;20439;-59
2021/09/22 01:08:43;;;;;;;11.93;10.73;;;10.20;99.90;;;;;;5080701;28;20447;-59
2021/09/22 01:11:10;;;;;;;10.77;9.67;;;10.10;99.90;;;;;;5080830;28;20455;-61
2021/09/22 01:13:37;;;;;;;9.60;8.70;;;10.10;99.90;;;;;;5081505;28;20443;-59
2021/09/22 01:16:04;;;;;;;11.10;9.80;;;10.10;99.90;;;;;;5081406;28;20443;-61
2021/09/22 01:18:32;;;;;;;12.47;9.40;;;10.00;99.90;;;;;;5081590;28;20447;-61
2021/09/22 01:20:59;;;;;;;15.70;10.03;;;10.00;99.90;;;;;;5080463;28;20443;-57
2021/09/22 01:23:28;;;;;;;11.40;9.47;;;9.90;99.90;;;;;;5081263;28;20482;-59
2021/09/22 01:25:55;;;;;;;13.40;9.93;;;9.90;99.90;;;;;;5082030;28;20443;-60
2021/09/22 01:28:24;;;;;;;10.43;9.43;;;9.90;99.90;;;;;;5081762;28;20443;-61
2021/09/22 01:30:51;;;;;;;9.50;8.47;;;9.80;99.90;;;;;;5080773;28;20450;-61
2021/09/22 01:33:22;;;;;;;10.43;9.43;;;9.80;99.90;;;;;;5080189;28;20450;-61
2021/09/22 01:35:48;;;;;;;11.17;10.07;;;9.80;99.90;;;;;;5080154;28;20450;-62
2021/09/22 01:38:18;;;;;;;10.00;9.00;;;9.80;99.90;;;;;;5080846;28;20430;-60
2021/09/22 01:40:56;;;;;;;10.63;9.57;;;9.70;99.90;;;;;;5079884;28;20447;-61
2021/09/22 01:43:23;;;;;;;12.23;9.60;;;9.70;99.90;;;;;;5079392;28;20533;-59
2021/09/22 01:45:50;;;;;;;13.80;10.20;;;9.70;99.90;;;;;;5079796;28;20469;-57
2021/09/22 01:48:17;;;;;;;10.53;9.43;;;9.60;99.90;;;;;;5080032;28;20447;-61
2021/09/22 01:50:43;;;;;;;11.63;10.43;;;9.60;99.90;;;;;;5080577;28;20793;-62
2021/09/22 01:53:10;;;;;;;10.30;8.33;;;9.60;99.90;;;;;;5079344;28;20443;-60
2021/09/22 01:55:37;;;;;;;11.40;9.20;;;9.60;99.90;;;;;;5078898;28;20470;-61
2021/09/22 01:58:05;;;;;;;12.60;9.83;;;9.60;99.90;;;;;;5077620;28;20475;-62
2021/09/22 02:00:32;;;;;;;17.40;11.00;;;9.60;99.90;;;;;;5079340;28;20442;-61
2021/09/22 02:02:59;;;;;;;11.57;10.50;;;9.60;99.90;;;;;;5080005;28;21022;-60
2021/09/22 02:05:25;;;;;;;16.00;11.07;;;9.60;99.90;;;;;;5078564;28;20470;-62
2021/09/22 02:07:52;;;;;;;12.97;11.57;;;9.50;99.90;;;;;;5078640;28;20440;-61
2021/09/22 02:10:19;;;;;;;11.63;10.43;;;9.60;99.90;;;;;;5078893;28;20443;-61
2021/09/22 02:12:46;;;;;;;13.70;10.60;;;9.60;99.90;;;;;;5079336;28;20443;-61
2021/09/22 02:15:14;;;;;;;14.23;12.13;;;9.60;99.90;;;;;;5079294;28;20481;-61
2021/09/22 02:17:40;;;;;;;16.60;10.20;;;9.60;99.90;;;;;;5079027;28;20447;-62
2021/09/22 02:20:08;;;;;;;14.70;11.47;;;9.60;99.90;;;;;;5077168;28;20443;-61
2021/09/22 02:22:35;;;;;;;13.00;10.53;;;9.50;99.90;;;;;;5077606;28;20899;-60
2021/09/22 02:25:02;;;;;;;17.13;12.27;;;9.50;99.90;;;;;;5077901;28;20471;-60
2021/09/22 02:27:29;;;;;;;12.17;10.03;;;9.50;99.90;;;;;;5077892;28;20596;-60
2021/09/22 02:29:56;;;;;;;14.37;10.33;;;9.50;99.90;;;;;;5078311;28;20443;-61
2021/09/22 02:32:24;;;;;;;17.23;11.50;;;9.50;99.90;;;;;;5078181;28;20454;-62
2021/09/22 02:34:50;;;;;;;13.67;12.43;;;9.40;99.90;;;;;;5078472;28;20467;-61
2021/09/22 02:37:17;;;;;;;13.17;11.87;;;9.40;99.90;;;;;;5078093;28;20435;-60
2021/09/22 02:39:44;;;;;;;15.57;10.90;;;9.50;99.90;;;;;;5077724;28;20454;-60
2021/09/22 02:42:11;;;;;;;12.40;11.30;;;9.50;99.90;;;;;;5077190;28;20447;-60
2021/09/22 02:44:38;;;;;;;12.90;11.70;;;9.50;99.90;;;;;;5077675;28;20907;-61
2021/09/22 02:47:05;;;;;;;14.30;12.80;;;9.50;99.90;;;;;;5077218;28;20439;-60
2021/09/22 02:49:33;;;;;;;13.50;11.03;;;9.50;99.90;;;;;;5077502;28;20455;-60
2021/09/22 02:52:00;;;;;;;12.57;10.57;;;9.50;99.90;;;;;;5077076;28;20447;-59
2021/09/22 02:54:26;;;;;;;13.27;11.60;;;9.50;99.90;;;;;;5080091;28;20470;-62
2021/09/22 02:56:53;;;;;;;13.07;11.80;;;9.50;99.90;;;;;;5080612;28;20450;-59
2021/09/22 02:59:20;;;;;;;15.93;11.27;;;9.50;99.90;;;;;;5081038;28;20443;-60
2021/09/22 03:01:47;;;;;;;12.30;10.97;;;9.60;99.90;;;;;;5080994;28;20454;-62
2021/09/22 03:04:14;;;;;;;14.27;10.60;;;9.50;99.90;;;;;;5084692;28;20721;-62
2021/09/22 03:06:42;;;;;;;13.43;11.77;;;9.50;99.90;;;;;;5084094;28;20447;-60
2021/09/22 03:09:08;;;;;;;15.00;9.90;;;9.50;99.90;;;;;;5082692;28;20855;-62
2021/09/22 03:11:35;;;;;;;15.37;12.20;;;9.50;99.90;;;;;;5080749;28;20458;-62
2021/09/22 03:14:02;;;;;;;15.67;12.47;;;9.50;99.90;;;;;;5085903;28;20456;-61
2021/09/22 03:16:31;;;;;;;15.20;12.00;;;9.50;99.90;;;;;;5086785;28;20435;-62
2021/09/22 03:18:58;;;;;;;13.47;12.03;;;9.40;99.90;;;;;;5085623;28;20450;-62
2021/09/22 03:21:25;;;;;;;15.63;11.83;;;9.40;99.90;;;;;;5085397;28;20447;-62
2021/09/22 03:23:54;;;;;;;14.10;11.00;;;9.40;99.90;;;;;;5085512;28;20482;-62
2021/09/22 03:26:21;;;;;;;17.13;12.60;;;9.30;99.90;;;;;;5086434;28;20447;-62
2021/09/22 03:28:48;;;;;;;12.93;11.53;;;9.30;99.90;;;;;;5087110;28;20443;-62
2021/09/22 03:31:15;;;;;;;18.90;12.60;;;9.30;99.90;;;;;;5086008;28;20443;-60
2021/09/22 03:33:41;;;;;;;14.20;11.20;;;9.30;99.90;;;;;;5086375;28;20455;-59
2021/09/22 03:36:08;;;;;;;16.73;12.00;;;9.30;99.90;;;;;;5086620;28;20443;-61
2021/09/22 03:38:35;;;;;;;20.40;12.27;;;9.30;99.90;;;;;;5086448;28;20443;-61
2021/09/22 03:41:04;;;;;;;19.60;10.80;;;9.30;99.90;;;;;;5085606;28;20455;-62
2021/09/22 03:43:31;;;;;;;14.50;12.30;;;9.30;99.90;;;;;;5085803;28;20493;-61
2021/09/22 03:45:57;;;;;;;13.60;10.93;;;9.30;99.90;;;;;;5086119;28;20442;-59
2021/09/22 03:48:24;;;;;;;14.27;11.60;;;9.20;99.90;;;;;;5086162;28;20444;-62
2021/09/22 03:50:51;;;;;;;14.83;10.10;;;9.20;99.90;;;;;;5085530;28;20443;-62
2021/09/22 03:53:19;;;;;;;12.47;11.13;;;9.20;99.90;;;;;;5086128;28;20437;-60
2021/09/22 03:55:46;;;;;;;14.10;12.60;;;9.20;99.90;;;;;;5085252;28;20439;-62
2021/09/22 03:58:15;;;;;;;12.37;10.63;;;9.20;99.90;;;;;;5084995;28;20862;-62
2021/09/22 04:00:42;;;;;;;12.60;11.30;;;9.20;99.90;;;;;;5085142;28;20454;-59
2021/09/22 04:03:09;;;;;;;16.90;11.70;;;9.10;99.90;;;;;;5085432;28;20483;-62
2021/09/22 04:05:36;;;;;;;16.93;13.23;;;9.10;99.90;;;;;;5084717;28;20470;-61
2021/09/22 04:08:03;;;;;;;14.63;10.87;;;9.10;99.90;;;;;;5083705;28;20444;-63
2021/09/22 04:10:30;;;;;;;14.37;11.77;;;9.00;99.90;;;;;;5083674;28;20448;-63
2021/09/22 04:12:57;;;;;;;13.37;11.90;;;9.00;99.90;;;;;;5083879;28;20466;-63
2021/09/22 04:15:25;;;;;;;13.87;12.47;;;9.00;99.90;;;;;;5083870;28;20493;-64
2021/09/22 04:17:51;;;;;;;16.70;14.03;;;9.00;99.90;;;;;;5084321;28;20444;-64
2021/09/22 04:20:18;;;;;;;15.90;12.97;;;8.90;99.90;;;;;;5083921;28;20450;-62
2021/09/22 04:22:45;;;;;;;14.10;12.80;;;8.90;99.90;;;;;;5084326;28;20435;-63
2021/09/22 04:25:12;;;;;;;14.80;12.50;;;9.00;99.90;;;;;;5084369;28;20478;-64
2021/09/22 04:27:39;;;;;;;15.47;13.90;;;9.00;99.90;;;;;;5083156;28;20443;-63
2021/09/22 04:30:08;;;;;;;19.90;15.68;;;9.00;99.90;;;;;;5084224;28;20433;-62
2021/09/22 04:32:36;;;;;;;22.00;18.87;;;9.00;99.90;;;;;;5090487;28;20233;-61
2021/09/22 04:35:03;;;;;;;27.40;18.87;;;9.00;99.90;;;;;;5085460;28;20463;-62
2021/09/22 04:37:35;;;;;;;27.63;21.33;;;9.10;99.90;;;;;;5088467;28;20479;-62
2021/09/22 04:40:02;;;;;;;32.50;28.33;;;9.10;99.90;;;;;;5088996;28;20451;-63
2021/09/22 04:42:29;;;;;;;33.80;27.63;;;9.10;99.90;;;;;;5090287;28;20431;-63
2021/09/22 04:44:56;;;;;;;38.80;31.37;;;9.00;99.90;;;;;;5089977;28;20494;-62
2021/09/22 04:47:23;;;;;;;34.97;29.50;;;9.00;99.90;;;;;;5090561;28;20439;-61
2021/09/22 04:49:51;;;;;;;47.87;34.07;;;9.00;99.90;;;;;;5089333;28;20454;-62
2021/09/22 04:52:17;;;;;;;45.73;34.13;;;9.00;99.90;;;;;;5090069;28;20447;-62
2021/09/22 04:54:44;;;;;;;40.73;33.90;;;9.00;99.90;;;;;;5089505;28;20463;-63
2021/09/22 04:57:11;;;;;;;50.67;39.97;;;9.00;99.90;;;;;;5090008;28;20439;-62
2021/09/22 04:59:37;;;;;;;52.30;42.27;;;9.00;99.90;;;;;;5088722;28;20444;-62
2021/09/22 05:02:04;;;;;;;54.93;40.60;;;9.00;99.90;;;;;;5090006;28;20439;-62
2021/09/22 05:04:31;;;;;;;58.80;46.30;;;9.00;99.90;;;;;;5089207;28;20483;-63
2021/09/22 05:06:59;;;;;;;54.13;45.90;;;9.00;99.90;;;;;;5089569;28;20445;-61
2021/09/22 05:09:25;;;;;;;55.23;44.30;;;9.00;99.90;;;;;;5089110;28;20447;-62
2021/09/22 05:11:54;;;;;;;53.03;43.07;;;8.90;99.90;;;;;;5089791;28;20443;-62
2021/09/22 05:14:21;;;;;;;58.30;43.80;;;9.00;99.90;;;;;;5088553;28;20871;-63
2021/09/22 05:16:47;;;;;;;55.17;42.57;;;9.00;99.90;;;;;;5088158;28;20451;-61
2021/09/22 05:19:14;;;;;;;49.57;39.80;;;9.00;99.90;;;;;;5088717;28;20924;-62
2021/09/22 05:21:41;;;;;;;41.47;37.00;;;9.00;99.90;;;;;;5088831;28;20446;-63
2021/09/22 05:24:09;;;;;;;43.03;37.17;;;9.00;99.90;;;;;;5087928;28;20487;-61
2021/09/22 05:26:36;;;;;;;46.43;36.10;;;9.00;99.90;;;;;;5087994;28;20435;-62
2021/09/22 05:29:02;;;;;;;40.03;34.47;;;9.00;99.90;;;;;;5087683;28;20443;-62
2021/09/22 05:31:29;;;;;;;48.10;36.97;;;9.00;99.90;;;;;;5084158;28;20458;-61
2021/09/22 05:33:56;;;;;;;37.50;30.87;;;9.10;99.90;;;;;;5083625;28;20455;-61
2021/09/22 05:36:23;;;;;;;41.00;32.73;;;9.10;99.90;;;;;;5084515;28;20451;-62
2021/09/22 05:38:49;;;;;;;37.13;29.33;;;9.10;99.90;;;;;;5086913;28;20439;-62
2021/09/22 05:41:18;;;;;;;40.57;30.27;;;9.10;99.90;;;;;;5085550;28;20446;-60
2021/09/22 05:43:44;;;;;;;42.53;30.90;;;9.10;99.90;;;;;;5083326;28;20483;-61
2021/09/22 05:46:11;;;;;;;31.97;25.80;;;9.20;99.90;;;;;;5084772;28;20447;-62
2021/09/22 05:48:38;;;;;;;29.27;21.50;;;9.20;99.90;;;;;;5083293;28;20854;-61
2021/09/22 05:51:05;;;;;;;24.80;19.07;;;9.30;99.90;;;;;;5083360;28;20459;-61
2021/09/22 05:53:31;;;;;;;24.90;20.93;;;9.30;99.90;;;;;;5083484;28;20456;-61
2021/09/22 05:55:58;;;;;;;22.10;19.57;;;9.40;99.90;;;;;;5084192;28;20447;-62
2021/09/22 05:58:26;;;;;;;21.07;16.70;;;9.50;99.90;;;;;;5085768;28;20447;-60
2021/09/22 06:00:53;;;;;;;21.30;16.50;;;9.50;99.90;;;;;;5086893;28;20444;-61
2021/09/22 06:03:20;;;;;;;18.90;16.70;;;9.60;99.90;;;;;;5087055;28;20450;-62
2021/09/22 06:05:47;;;;;;;17.17;14.53;;;9.70;99.90;;;;;;5087183;28;20450;-61
2021/09/22 06:08:14;;;;;;;17.50;15.13;;;9.80;99.90;;;;;;5087944;28;20447;-61
2021/09/22 06:10:40;;;;;;;19.70;15.40;;;9.80;99.90;;;;;;5087111;28;20765;-62
2021/09/22 06:13:09;;;;;;;17.53;14.07;;;9.90;99.90;;;;;;5086832;28;20449;-61
2021/09/22 06:15:37;;;;;;;15.47;12.33;;;10.00;99.90;;;;;;5087220;28;20455;-62
2021/09/22 06:18:04;;;;;;;19.83;14.63;;;10.10;99.90;;;;;;5088088;28;20447;-62
2021/09/22 06:20:31;;;;;;;18.50;12.57;;;10.20;99.90;;;;;;5088562;28;20450;-62
2021/09/22 06:22:58;;;;;;;20.40;13.70;;;10.30;99.90;;;;;;5089464;28;20762;-61
2021/09/22 06:25:25;;;;;;;17.07;13.27;;;10.40;99.90;;;;;;5089271;28;20483;-63
2021/09/22 06:27:52;;;;;;;12.07;10.60;;;10.50;99.90;;;;;;5087413;28;20450;-60
2021/09/22 06:30:19;;;;;;;18.10;11.70;;;10.60;99.90;;;;;;5090839;28;20447;-61
2021/09/22 06:32:47;;;;;;;15.77;11.97;;;10.70;99.90;;;;;;5091133;28;20499;-60
2021/09/22 06:35:14;;;;;;;14.93;11.97;;;10.70;99.90;;;;;;5091395;28;20469;-61
2021/09/22 06:37:41;;;;;;;15.57;12.83;;;10.80;99.90;;;;;;5091686;28;20439;-61
2021/09/22 06:40:09;;;;;;;14.90;12.23;;;10.80;99.90;;;;;;5091669;28;20447;-60
2021/09/22 06:42:36;;;;;;;14.43;12.03;;;10.90;99.90;;;;;;5091624;28;20996;-59
2021/09/22 06:45:03;;;;;;;16.20;11.67;;;11.00;99.90;;;;;;5090348;28;20489;-62
2021/09/22 06:47:29;;;;;;;15.63;12.20;;;11.10;99.90;;;;;;5092783;28;20443;-62
2021/09/22 06:49:58;;;;;;;15.83;11.50;;;11.10;99.90;;;;;;5091899;28;20447;-61
2021/09/22 06:52:24;;;;;;;11.43;9.80;;;11.20;99.90;;;;;;5091484;28;20439;-62
2021/09/22 06:54:51;;;;;;;16.37;13.57;;;11.20;99.90;;;;;;5090960;28;20459;-62
2021/09/22 06:57:18;;;;;;;15.83;14.20;;;11.30;99.90;;;;;;5091530;28;20454;-64
2021/09/22 06:59:44;;;;;;;13.57;12.17;;;11.30;99.90;;;;;;5091410;28;20443;-61
2021/09/22 07:02:11;;;;;;;17.97;12.60;;;11.30;99.90;;;;;;5091918;28;20454;-62
2021/09/22 07:04:38;;;;;;;14.60;12.03;;;11.40;99.90;;;;;;5091165;28;20589;-63
2021/09/22 07:07:06;;;;;;;17.57;14.33;;;11.50;99.90;;;;;;5091253;28;20443;-63
2021/09/22 07:09:33;;;;;;;15.90;13.63;;;11.50;99.90;;;;;;5089929;28;20519;-60
2021/09/22 07:11:59;;;;;;;13.23;11.87;;;11.50;99.90;;;;;;5090847;28;20525;-60
2021/09/22 07:14:26;;;;;;;17.50;12.60;;;11.60;99.90;;;;;;5091767;28;20463;-63
2021/09/22 07:16:53;;;;;;;16.13;11.87;;;11.70;99.90;;;;;;5091867;28;20438;-61
2021/09/22 07:19:20;;;;;;;15.63;12.60;;;11.80;99.90;;;;;;5091191;28;20450;-63
2021/09/22 07:21:47;;;;;;;17.20;12.10;;;11.90;99.90;;;;;;5091242;28;20439;-62
2021/09/22 07:24:15;;;;;;;14.80;12.60;;;12.10;99.90;;;;;;5090745;28;20487;-62
2021/09/22 07:26:42;;;;;;;16.17;13.00;;;12.20;99.90;;;;;;5091101;28;20435;-62
2021/09/22 07:29:09;;;;;;;14.90;13.50;;;12.40;99.90;;;;;;5090901;28;20442;-63
2021/09/22 07:31:36;;;;;;;14.67;13.23;;;12.50;99.90;;;;;;5090949;28;20447;-61
2021/09/22 07:34:03;;;;;;;17.57;14.07;;;12.60;99.90;;;;;;5091440;28;20486;-64
2021/09/22 07:36:30;;;;;;;15.90;14.30;;;12.70;99.90;;;;;;5091463;28;20435;-62
2021/09/22 07:38:57;;;;;;;18.77;14.07;;;12.80;99.90;;;;;;5092041;28;20458;-62
2021/09/22 07:41:25;;;;;;;15.83;14.37;;;13.00;99.90;;;;;;5091338;28;20443;-62
2021/09/22 07:43:52;;;;;;;15.93;14.23;;;13.10;99.90;;;;;;5091852;28;20475;-63
2021/09/22 07:46:19;;;;;;;17.00;15.20;;;13.20;99.90;;;;;;5091544;28;20962;-62
2021/09/22 07:48:46;;;;;;;17.30;15.80;;;13.30;99.90;;;;;;5091328;28;20449;-63
2021/09/22 07:51:13;;;;;;;16.90;15.50;;;13.40;99.90;;;;;;5090758;28;20454;-64
2021/09/22 07:53:39;;;;;;;16.77;15.33;;;13.50;99.90;;;;;;5090732;28;20451;-62
2021/09/22 07:56:06;;;;;;;17.60;16.07;;;13.60;99.90;;;;;;5088308;28;20451;-64
2021/09/22 07:58:34;;;;;;;17.20;15.70;;;13.80;99.90;;;;;;5092450;28;20431;-64
2021/09/22 08:01:01;;;;;;;17.17;15.57;;;13.90;99.90;;;;;;5091490;28;20427;-62
2021/09/22 08:03:28;;;;;;;17.97;16.30;;;14.10;99.90;;;;;;5090287;28;20439;-61
2021/09/22 08:05:55;;;;;;;17.63;16.13;;;14.40;99.90;;;;;;5089520;28;20487;-63
2021/09/22 08:08:21;;;;;;;20.87;19.03;;;14.60;99.90;;;;;;5089037;28;20474;-62
2021/09/22 08:10:48;;;;;;;20.33;18.37;;;14.70;99.90;;;;;;5089799;28;20454;-59
2021/09/22 08:13:15;;;;;;;21.57;19.60;;;14.70;99.90;;;;;;5088977;28;20473;-61
2021/09/22 08:15:43;;;;;;;19.73;18.13;;;14.80;99.90;;;;;;5088895;28;20470;-61
2021/09/22 08:18:10;;;;;;;20.30;18.70;;;15.00;99.90;;;;;;5088819;28;20499;-61
2021/09/22 08:20:37;;;;;;;20.77;19.13;;;15.00;99.90;;;;;;5088438;28;20443;-62
2021/09/22 08:23:04;;;;;;;20.27;18.30;;;15.20;99.90;;;;;;5089280;28;20474;-63
2021/09/22 08:25:30;;;;;;;22.83;20.87;;;15.30;99.90;;;;;;5110931;22;20500;-62
2021/09/22 08:27:57;;;;;;;21.20;19.50;;;15.40;99.90;;;;;;5092807;28;20438;-64
2021/09/22 08:30:24;;;;;;;22.43;20.83;;;15.40;99.90;;;;;;5093199;28;20457;-65
2021/09/22 08:32:53;;;;;;;21.70;20.27;;;15.60;99.90;;;;;;5093048;28;20452;-64
2021/09/22 08:35:20;;;;;;;21.50;19.70;;;15.70;99.90;;;;;;5079084;28;20826;-64
2021/09/22 08:37:46;;;;;;;22.37;20.33;;;15.90;99.90;;;;;;5072583;28;20858;-64
2021/09/22 08:40:14;;;;;;;22.93;20.53;;;16.10;99.90;;;;;;5072598;28;20440;-64
2021/09/22 08:42:41;;;;;;;23.13;21.00;;;16.20;99.90;;;;;;5072691;28;20474;-64
2021/09/22 08:45:11;;;;;;;24.30;22.10;;;16.30;99.90;;;;;;5072509;28;20897;-65
2021/09/22 08:47:37;;;;;;;24.50;22.70;;;16.50;99.90;;;;;;5072402;28;20992;-64
2021/09/22 08:50:07;;;;;;;26.07;23.80;;;16.60;99.90;;;;;;5072263;28;20442;-65
2021/09/22 08:52:33;;;;;;;24.50;22.70;;;16.60;99.90;;;;;;5071931;28;20446;-65
2021/09/22 08:55:00;;;;;;;25.83;23.83;;;16.70;99.90;;;;;;5072270;28;20467;-65
2021/09/22 08:57:27;;;;;;;24.53;22.77;;;16.80;99.90;;;;;;5072305;28;20493;-64
2021/09/22 08:59:53;;;;;;;26.10;24.20;;;17.00;99.90;;;;;;5072127;28;20450;-63
2021/09/22 09:02:20;;;;;;;25.00;23.20;;;17.20;99.90;;;;;;5072207;28;20450;-64
2021/09/22 09:05:02;;;;;;;28.17;25.67;;;17.30;99.90;;;;;;5072167;28;20571;-65
2021/09/22 09:07:35;;;;;;;26.00;24.03;;;17.40;99.90;;;;;;5072386;28;20446;-65
2021/09/22 09:10:05;;;;;;;26.80;24.70;;;17.40;99.90;;;;;;5071943;28;20447;-65
2021/09/22 09:12:32;;;;;;;26.70;24.40;;;17.50;99.90;;;;;;5072059;28;20439;-63
2021/09/22 09:15:03;;;;;;;26.27;24.20;;;17.50;99.90;;;;;;5072031;28;20982;-64
2021/09/22 09:17:39;;;;;;;26.73;24.87;;;17.60;99.90;;;;;;5072172;28;20450;-64
2021/09/22 09:20:15;;;;;;;26.00;23.93;;;17.60;99.90;;;;;;5071716;28;20443;-65
2021/09/22 09:22:54;;;;;;;26.73;24.77;;;17.70;99.90;;;;;;5071791;28;20442;-65
2021/09/22 09:25:24;;;;;;;27.77;25.67;;;17.70;99.90;;;;;;5071518;28;20569;-65
2021/09/22 09:27:51;;;;;;;26.83;24.93;;;17.80;99.90;;;;;;5071666;28;20439;-64
2021/09/22 09:30:22;;;;;;;27.70;25.80;;;17.90;99.90;;;;;;5071715;28;20446;-65
2021/09/22 09:32:49;;;;;;;28.90;26.40;;;18.00;99.90;;;;;;5071759;28;20447;-64
2021/09/22 09:35:19;;;;;;;27.93;25.73;;;18.00;99.90;;;;;;5071520;28;20467;-64
2021/09/22 09:37:48;;;;;;;27.93;25.77;;;18.00;99.90;;;;;;5071555;28;20944;-64
2021/09/22 09:40:21;;;;;;;29.13;26.93;;;18.20;99.90;;;;;;5071561;28;20479;-65
2021/09/22 09:42:50;;;;;;;29.37;27.17;;;18.20;99.90;;;;;;5071612;28;20451;-64
2021/09/22 09:45:21;;;;;;;29.10;26.80;;;18.40;99.90;;;;;;5071395;28;20487;-64
2021/09/22 09:48:15;;;;;;;28.03;25.73;;;18.50;99.90;;;;;;5071505;28;20879;-64
2021/09/22 09:50:45;;;;;;;28.50;26.30;;;18.50;99.90;;;;;;5013872;28;20455;-63
2021/09/22 09:53:24;;;;;;;30.20;28.00;;;18.60;99.90;;;;;;5071454;28;20443;-63
2021/09/22 09:55:51;;;;;;;28.93;26.53;;;18.70;99.90;;;;;;5071410;28;20873;-63
2021/09/22 09:58:19;;;;;;;30.03;27.33;;;18.70;99.90;;;;;;5071246;28;20438;-65
2021/09/22 10:00:52;;;;;;;32.00;29.23;;;18.90;99.90;;;;;;5066571;28;20828;-64
2021/09/22 10:03:20;;;;;;;29.63;27.37;;;19.10;99.90;;;;;;5049989;28;20819;-62
2021/09/22 10:05:47;;;;;;;28.37;26.07;;;19.20;99.90;;;;;;5051115;28;20484;-64
2021/09/22 10:08:17;;;;;;;30.33;27.90;;;19.40;99.90;;;;;;5051112;28;20459;-64
2021/09/22 10:10:45;;;;;;;30.83;28.50;;;19.50;99.90;;;;;;5050719;28;20451;-63
2021/09/22 10:13:14;;;;;;;30.77;28.27;;;19.60;99.90;;;;;;5051208;28;20447;-60
2021/09/22 10:15:43;;;;;;;31.67;29.30;;;19.70;99.90;;;;;;5051076;28;20826;-61
2021/09/22 10:18:10;;;;;;;29.43;27.43;;;19.80;99.90;;;;;;5050960;28;20451;-60
2021/09/22 10:20:38;;;;;;;30.57;27.77;;;20.00;99.90;;;;;;5050870;28;20448;-65
2021/09/22 10:23:05;;;;;;;30.80;28.33;;;20.20;99.90;;;;;;5051036;28;20476;-64
2021/09/22 10:25:34;;;;;;;31.60;29.10;;;20.50;99.90;;;;;;5050929;28;20484;-63
2021/09/22 10:28:01;;;;;;;30.17;28.10;;;20.50;99.90;;;;;;5051104;28;20455;-53
2021/09/22 10:30:36;;;;;;;30.83;28.60;;;20.80;99.60;;;;;;5050823;28;20820;-61
2021/09/22 10:33:03;;;;;;;31.20;28.80;;;21.00;99.10;;;;;;5051142;28;20439;-57
2021/09/22 10:35:36;;;;;;;31.87;29.47;;;21.20;98.60;;;;;;5051110;28;20828;-56
2021/09/22 10:38:38;;;;;;;31.87;29.47;;;21.40;98.50;;;;;;5051026;28;20535;-54
2021/09/22 10:41:06;;;;;;;30.93;28.83;;;21.60;97.20;;;;;;5050810;28;20447;-61
2021/09/22 10:43:39;;;;;;;30.57;28.53;;;21.70;96.90;;;;;;5051095;28;20451;-61
2021/09/22 10:46:11;;;;;;;31.67;29.57;;;21.80;96.10;;;;;;5050790;28;20511;-60
2021/09/22 10:48:41;;;;;;;32.27;29.80;;;22.00;94.50;;;;;;5050722;28;20447;-59
2021/09/22 10:51:10;;;;;;;31.27;28.97;;;21.80;94.80;;;;;;5050995;28;20451;-59
2021/09/22 10:53:45;;;;;;;31.40;29.10;;;21.60;94.60;;;;;;5050895;28;20502;-61
2021/09/22 10:56:15;;;;;;;32.87;30.70;;;21.80;94.80;;;;;;5050841;28;20444;-60
2021/09/22 10:58:49;;;;;;;33.37;31.27;;;22.40;93.50;;;;;;5050651;28;20937;-61
2021/09/22 11:01:50;;;;;;;31.50;28.97;;;22.50;92.30;;;;;;5050821;28;20482;-59
2021/09/22 11:04:17;;;;;;;30.80;28.43;;;23.00;91.20;;;;;;5050931;28;20490;-62
2021/09/22 11:07:07;;;;;;;32.47;30.17;;;23.70;85.60;;;;;;5050652;28;20566;-61
2021/09/22 11:09:37;;;;;;;30.23;28.00;;;24.30;75.00;;;;;;5050513;28;20447;-60
2021/09/22 11:12:14;;;;;;;30.87;28.90;;;24.70;68.50;;;;;;5050659;28;20436;-59
2021/09/22 11:14:43;;;;;;;33.10;31.00;;;24.90;63.20;;;;;;5051794;28;20817;-58
2021/09/22 11:17:12;;;;;;;29.63;27.63;;;25.60;59.70;;;;;;5054427;28;20440;-57
2021/09/22 11:19:41;;;;;;;30.47;28.67;;;25.60;58.00;;;;;;5053953;28;20494;-58
2021/09/22 11:22:11;;;;;;;31.23;29.33;;;26.10;56.80;;;;;;5054211;28;20440;-60
2021/09/22 11:24:40;;;;;;;31.30;29.37;;;25.90;55.50;;;;;;5053925;28;20472;-62
2021/09/22 11:27:11;;;;;;;30.67;28.90;;;27.50;54.40;;;;;;5054096;28;20479;-60
2021/09/22 11:29:40;;;;;;;29.73;27.93;;;29.30;49.90;;;;;;5053870;28;20812;-58
2021/09/22 11:32:08;;;;;;;29.43;27.53;;;30.00;46.80;;;;;;5054044;28;20534;-58
2021/09/22 11:34:39;;;;;;;30.93;29.03;;;30.70;44.20;;;;;;5053854;28;20663;-58
2021/09/22 11:37:11;;;;;;;30.77;29.00;;;31.60;42.70;;;;;;5053879;28;20439;-61
2021/09/22 11:39:39;;;;;;;31.80;29.90;;;32.40;40.90;;;;;;5053642;28;20454;-60
2021/09/22 11:42:06;;;;;;;32.37;30.37;;;31.70;39.30;;;;;;5053743;28;20451;-60
2021/09/22 11:44:35;;;;;;;29.97;28.30;;;32.60;39.40;;;;;;5053770;28;20463;-60
2021/09/22 11:47:05;;;;;;;30.97;29.07;;;34.10;37.50;;;;;;5053783;28;20490;-58
2021/09/22 11:49:33;;;;;;;30.63;29.03;;;35.10;35.20;;;;;;5053564;28;20451;-59
2021/09/22 11:52:13;;;;;;;30.13;28.33;;;36.10;34.00;;;;;;5053610;28;20439;-59
2021/09/22 11:54:48;;;;;;;31.33;29.33;;;37.30;32.70;;;;;;5053519;28;20471;-61
2021/09/22 11:57:17;;;;;;;30.13;28.53;;;37.30;32.30;;;;;;5053503;28;20212;-57
2021/09/22 11:59:47;;;;;;;30.88;28.80;;;37.20;30.30;;;;;;5053375;28;20229;-59
2021/09/22 12:02:15;;;;;;;29.60;27.90;;;37.30;30.20;;;;;;5053479;28;20209;-62
2021/09/22 12:04:43;;;;;;;31.52;29.42;;;37.50;29.80;;;;;;5053356;28;20240;-61
2021/09/22 12:07:11;;;;;;;28.48;26.98;;;38.60;28.90;;;;;;5053387;28;20228;-57
2021/09/22 12:09:40;;;;;;;30.67;29.10;;;38.90;27.60;;;;;;5053286;28;20670;-56
2021/09/22 12:12:13;;;;;;;30.88;29.25;;;38.20;27.90;;;;;;5053443;28;20286;-59
2021/09/22 12:14:48;;;;;;;29.98;28.38;;;37.20;27.90;;;;;;5053398;28;20232;-59
2021/09/22 12:17:17;;;;;;;30.33;28.63;;;37.30;28.60;;;;;;5053362;28;20254;-59
2021/09/22 12:19:44;;;;;;;30.73;28.88;;;37.30;28.70;;;;;;5052873;28;20621;-63
2021/09/22 12:22:13;;;;;;;31.60;29.80;;;37.60;28.70;;;;;;5053038;28;20201;-63
2021/09/22 12:24:45;;;;;;;29.83;28.13;;;37.90;28.20;;;;;;5052896;28;20232;-63
2021/09/22 12:27:14;;;;;;;31.40;29.35;;;38.40;27.50;;;;;;5052070;28;20225;-63
2021/09/22 12:29:53;;;;;;;31.05;29.25;;;38.30;28.10;;;;;;5052758;28;20697;-63
2021/09/22 12:32:20;;;;;;;31.08;29.30;;;37.20;28.50;;;;;;5053022;28;20215;-62
2021/09/22 12:34:47;;;;;;;30.90;29.13;;;38.60;28.40;;;;;;5052618;28;20976;-63
2021/09/22 12:37:16;;;;;;;31.58;29.95;;;39.60;27.10;;;;;;5052761;28;20280;-63